Flight Track Log - Related Links

Times and Time Zones

All times are in EDT time to prevent confusion due to time zone crossing. See the ASQ5745 flight status page for this flight to view local times or setup timezone preferences in your user account.

Time Position Orientation Groundspeed Altitude Reporting Facility
EDT Latitude Longitude Course Direction KTS MPH feet Rate Location/Type
Sun 08:25:36 AM 38.9500 -77.5167 North 181 208 2,100  Level Potomac TRACON
Sun 08:26:36 AM 38.9667 -77.6000 284° West 255 293 4,400 2,504 Climbing Potomac TRACON
Sun 08:27:31 AM 39.0333 -77.6333 339° North 289 333 6,900 2,633 Climbing Potomac TRACON
Sun 08:28:00 AM 39.3218 -77.4500 North  Level FlightAware Approximate
Sun 08:28:14 AM 39.0836 -77.6319 North 304 350 8,700  Level Washington Center
Sun 08:29:00 AM 39.4189 -77.4500 North  Level FlightAware Approximate
Sun 08:29:12 AM 39.1611 -77.6072 14° North 318 366 10,600  Level Washington Center
Sun 08:30:00 AM 39.5160 -77.4500 North  Level FlightAware Approximate
Sun 08:30:13 AM 39.2472 -77.5803 14° North 337 388 12,500  Level Washington Center
Sun 08:31:14 AM 39.3414 -77.5506 14° North 337 388 14,100 1,563 Climbing Washington Center
Sun 08:32:12 AM 39.4400 -77.5208 13° North 342 394 15,600 1,452 Climbing Washington Center
Sun 08:33:51 AM 39.6108 -77.4625 15° North 372 428 17,900 1,170 Climbing New York Center
Sun 08:34:51 AM 39.7303 -77.4522 North 385 443 18,700 800 Climbing New York Center
Sun 08:35:51 AM 39.8428 -77.4550 359° North 398 458 19,500 780 Climbing New York Center
Sun 08:36:54 AM 39.9575 -77.4525 North 404 465 20,300 787 Climbing New York Center
Sun 08:37:53 AM 40.0767 -77.4503 North 409 471 21,100 756 Climbing New York Center
Sun 08:38:53 AM 40.1778 -77.4300 North 414 476 21,800 800 Climbing New York Center
Sun 08:39:53 AM 40.2744 -77.3414 35° Northeast 401 461 22,700 915 Climbing New York Center
Sun 08:40:51 AM 40.3733 -77.2525 34° Northeast 413 475 23,600 908 Climbing New York Center
Sun 08:41:52 AM 40.4717 -77.1689 33° Northeast 423 487 24,500 885 Climbing New York Center
Sun 08:43:00 AM 40.5741 -77.1296 16° North  Level FlightAware Approximate
Sun 08:43:54 AM 40.6889 -77.0414 16° North 423 487 26,300  Level New York Center
Sun 08:44:52 AM 40.7944 -76.9769 25° Northeast 418 481 27,000 353 Climbing New York Center
Sun 08:45:53 AM 40.9064 -76.9103 24° Northeast 418 481 27,000  Level New York Center
Sun 08:46:51 AM 41.0203 -76.8408 25° Northeast 428 493 27,000  Level New York Center
Sun 08:47:51 AM 41.1386 -76.7714 24° Northeast 442 509 27,000  Level New York Center
Sun 08:48:52 AM 41.2567 -76.6992 25° Northeast 455 524 27,000  Level New York Center
Sun 08:49:52 AM 41.3856 -76.6219 24° Northeast 455 524 27,000  Level New York Center
Sun 08:50:52 AM 41.5036 -76.5492 25° Northeast 455 524 27,000  Level New York Center
Sun 08:51:53 AM 41.6217 -76.4761 25° Northeast 455 524 27,000 -443 Level New York Center
Sun 08:52:54 AM 41.7419 -76.4031 24° Northeast 455 524 26,100 -1,000 Descending New York Center
Sun 08:54:53 AM 41.9925 -76.2450 25° Northeast 464 534 24,000 -704 Descending Boston Center
Sun 08:55:53 AM 42.1097 -76.1708 25° Northeast 464 534 24,000  Level Boston Center
Sun 08:56:53 AM 42.1953 -76.0414 48° Northeast 455 524 24,000  Level Boston Center
Sun 08:57:53 AM 42.2481 -75.8844 66° East 441 507 24,000  Level Boston Center
Sun 08:58:53 AM 42.2944 -75.7242 69° East 441 507 24,000  Level Boston Center
Sun 08:59:53 AM 42.3344 -75.5606 72° East 451 519 24,000 -550 Level Boston Center
Sun 09:00:53 AM 42.3744 -75.3911 72° East 456 525 22,900 -1,450 Descending Boston Center
Sun 09:01:53 AM 42.4183 -75.2244 70° East 461 531 21,100 -2,100 Descending Boston Center
Sun 09:02:53 AM 42.4578 -75.0517 73° East 466 536 18,700 -2,350 Descending Boston Center
Sun 09:03:53 AM 42.4972 -74.8817 72° East 472 543 16,400 -2,312 Descending Boston Center
Sun 09:04:42 AM 42.5269 -74.7558 72° East 455 524 14,500 -2,388 Descending Boston Center
Sun 09:05:36 AM 42.5611 -74.6106 72° East 438 504 12,300 -1,878 Descending Boston Center
Sun 09:06:37 AM 42.5950 -74.4681 72° East 396 456 10,900 -1,377 Descending Boston Center
Sun 09:07:38 AM 42.6283 -74.3364 71° East 306 352 9,500 -1,636 Descending Boston Center
Sun 09:08:38 AM 42.6531 -74.2242 73° East 298 343 7,600 -1,930 Descending Boston Center
Sun 09:09:33 AM 42.6756 -74.1317 72° East 294 338 5,800 -1,918 Descending Boston Center
Sun 09:10:40 AM 42.7492 -74.0686 32° Northeast 282 325 3,700 -1,323 Descending Boston Center
Sun 09:11:40 AM 42.8167 -74.0253 25° Northeast 264 304 3,000 -316 Descending Boston Center
Sun 09:12:53 AM 42.8700 -73.9303 53° Northeast 261 300 3,000 -197 Level Boston Center
Sun 09:13:42 AM 42.8856 -73.8542 74° East 269 310 2,600 -550 Descending Boston Center
Sun 09:14:42 AM 42.8506 -73.8108 138° Southeast 192 221 2,000 -694 Descending Boston Center
Sun 09:15:43 AM 42.8069 -73.8097 179° South 141 162 1,200 -738 Descending Boston Center
Sun 09:16:44 AM 42.7653 -73.8061 176° South 125 144 500 -689 Descending Boston Center

Login

Don't have an account? Register now (free) for customized features, flight alerts, and more!